Time;durP1;ratioP1;P1;durP2;ratioP2;P2;SDS_P1;SDS_P2;PMS_P1;PMS_P2;Temp;Humidity;BMP_temperature;BMP_pressure;BME280_temperature;BME280_humidity;BME280_pressure;Samples;Min_cycle;Max_cycle;Signal;HPM_P1;HPM_P2
2022/09/13 00:00:15;;;;;;;9.35;3.20;;;;;;;;;;5055635;28;20037;-46
2022/09/13 00:02:41;;;;;;;8.48;2.90;;;;;;;;;;5053796;28;20098;-44
2022/09/13 00:05:07;;;;;;;6.60;3.42;;;;;;;;;;5044623;28;20513;-45
2022/09/13 00:07:33;;;;;;;3.60;2.85;;;;;;;;;;5041401;28;20067;-44
2022/09/13 00:09:58;;;;;;;9.63;2.60;;;;;;;;;;5043128;28;20707;-44
2022/09/13 00:12:24;;;;;;;5.28;2.72;;;;;;;;;;5052212;28;20516;-47
2022/09/13 00:14:50;;;;;;;5.65;2.95;;;;;;;;;;5061447;28;20560;-44
2022/09/13 00:17:15;;;;;;;8.82;3.65;;;;;;;;;;5048972;28;20044;-44
2022/09/13 00:19:41;;;;;;;4.07;2.92;;;;;;;;;;5049578;28;20081;-44
2022/09/13 00:22:07;;;;;;;5.53;3.30;;;;;;;;;;5050754;28;20549;-44
2022/09/13 00:24:32;;;;;;;5.60;3.03;;;;;;;;;;5051772;28;20047;-44
2022/09/13 00:26:59;;;;;;;3.53;2.88;;;;;;;;;;5046656;28;20090;-44
2022/09/13 00:29:26;;;;;;;3.65;2.53;;;;;;;;;;5055353;28;20481;-47
2022/09/13 00:31:52;;;;;;;5.38;2.92;;;;;;;;;;5053431;28;20047;-44
2022/09/13 00:34:18;;;;;;;8.20;3.05;;;;;;;;;;5047226;28;20044;-44
2022/09/13 00:36:43;;;;;;;4.13;2.45;;;;;;;;;;5044556;28;20479;-46
2022/09/13 00:39:10;;;;;;;8.95;3.45;;;;;;;;;;5053012;28;20181;-44
2022/09/13 00:41:35;;;;;;;5.75;2.60;;;;;;;;;;5047227;28;20048;-49
2022/09/13 00:44:02;;;;;;;3.70;2.50;;;;;;;;;;5052923;28;20041;-48
2022/09/13 00:46:34;;;;;;;6.38;2.80;;;;;;;;;;5043353;28;20553;-45
2022/09/13 00:49:13;;;;;;;5.57;2.53;;;;;;;;;;5054283;28;20044;-44
2022/09/13 00:51:42;;;;;;;6.15;2.70;;;;;;;;;;5054181;28;20102;-45
2022/09/13 00:54:08;;;;;;;8.02;3.03;;;;;;;;;;5046026;28;20194;-45
2022/09/13 00:56:44;;;;;;;5.40;2.50;;;;;;;;;;5048881;28;20158;-43
2022/09/13 00:59:15;;;;;;;4.95;2.65;;;;;;;;;;5048784;28;20051;-44
2022/09/13 01:01:47;;;;;;;4.27;2.43;;;;;;;;;;5041535;28;20398;-45
2022/09/13 01:04:14;;;;;;;5.75;2.75;;;;;;;;;;5052410;28;20039;-44
2022/09/13 01:06:41;;;;;;;3.55;2.42;;;;;;;;;;5046682;28;20032;-44
2022/09/13 01:09:07;;;;;;;5.82;2.50;;;;;;;;;;5047822;28;20045;-47
2022/09/13 01:11:59;;;;;;;4.55;2.67;;;;;;;;;;5050441;28;20029;-47
2022/09/13 01:14:25;;;;;;;;;;;;;;;;;;5051900;28;20112;-46
2022/09/13 01:16:51;;;;;;;10.55;2.60;;;;;;;;;;5043442;28;19920;-44
2022/09/13 01:19:17;;;;;;;3.67;2.53;;;;;;;;;;5045607;28;20057;-45
2022/09/13 01:21:58;;;;;;;7.75;2.47;;;;;;;;;;5045525;28;20030;-46
2022/09/13 01:24:45;;;;;;;5.15;2.33;;;;;;;;;;5049770;28;20056;-48
2022/09/13 01:27:29;;;;;;;4.97;2.63;;;;;;;;;;5041946;28;20087;-47
2022/09/13 01:30:06;;;;;;;2.90;2.70;;;;;;;;;;5044049;28;20502;-44
2022/09/13 01:32:53;;;;;;;4.70;2.47;;;;;;;;;;5053313;28;20045;-44
2022/09/13 01:35:37;;;;;;;4.05;2.60;;;;;;;;;;5049835;28;20044;-43
2022/09/13 01:38:18;;;;;;;6.22;2.78;;;;;;;;;;5060172;28;20041;-45
2022/09/13 01:40:59;;;;;;;5.13;2.40;;;;;;;;;;5052738;28;20195;-44
2022/09/13 01:43:39;;;;;;;3.95;2.30;;;;;;;;;;5051343;28;20064;-47
2022/09/13 01:46:12;;;;;;;4.72;2.40;;;;;;;;;;5043780;28;20393;-44
2022/09/13 01:48:44;;;;;;;5.80;3.08;;;;;;;;;;5052652;28;20124;-43
2022/09/13 01:51:17;;;;;;;4.32;2.10;;;;;;;;;;5060277;28;20508;-45
2022/09/13 01:54:04;;;;;;;6.82;2.35;;;;;;;;;;5055122;28;20033;-44
2022/09/13 01:56:37;;;;;;;3.33;2.15;;;;;;;;;;5056047;28;20392;-45
2022/09/13 01:59:17;;;;;;;12.77;3.33;;;;;;;;;;5055119;28;20041;-44
2022/09/13 02:01:54;;;;;;;5.18;2.40;;;;;;;;;;5048428;28;20044;-44
2022/09/13 02:04:23;;;;;;;4.20;2.10;;;;;;;;;;5053522;28;20037;-44
2022/09/13 02:07:05;;;;;;;3.70;2.15;;;;;;;;;;5053581;28;20069;-44
2022/09/13 02:09:37;;;;;;;6.78;2.20;;;;;;;;;;5052861;28;20044;-46
2022/09/13 02:12:06;;;;;;;;;;;;;;;;;;5048694;28;20041;-47
2022/09/13 02:14:37;;;;;;;2.28;1.80;;;;;;;;;;5063444;28;19925;-46
2022/09/13 02:17:14;;;;;;;4.57;2.20;;;;;;;;;;5055027;28;20040;-44
2022/09/13 02:19:59;;;;;;;3.17;1.95;;;;;;;;;;5064117;28;20086;-44
2022/09/13 02:22:36;;;;;;;10.50;3.13;;;;;;;;;;5051007;28;20410;-47
2022/09/13 02:25:06;;;;;;;5.80;2.63;;;;;;;;;;5054141;28;20036;-51
2022/09/13 02:27:34;;;;;;;3.97;2.15;;;;;;;;;;5057286;28;20498;-45
2022/09/13 02:30:07;;;;;;;5.63;1.80;;;;;;;;;;5054257;28;20045;-47
2022/09/13 02:32:43;;;;;;;4.28;2.10;;;;;;;;;;5052039;28;20037;-44
2022/09/13 02:35:31;;;;;;;5.53;2.40;;;;;;;;;;5060814;28;20099;-45
2022/09/13 02:38:01;;;;;;;3.97;2.10;;;;;;;;;;5054513;28;20039;-44
2022/09/13 02:40:33;;;;;;;4.55;2.00;;;;;;;;;;5047356;28;20056;-45
2022/09/13 02:43:11;;;;;;;6.65;2.10;;;;;;;;;;5053732;28;20417;-45
2022/09/13 02:45:46;;;;;;;3.53;1.88;;;;;;;;;;5058302;28;20032;-44
2022/09/13 02:48:27;;;;;;;4.85;2.05;;;;;;;;;;5049924;28;20423;-46
2022/09/13 02:50:53;;;;;;;6.13;2.40;;;;;;;;;;5061591;28;20055;-44
2022/09/13 02:53:36;;;;;;;4.85;2.08;;;;;;;;;;5050241;28;20044;-46
2022/09/13 02:56:29;;;;;;;5.00;1.90;;;;;;;;;;5056553;28;20158;-44
2022/09/13 02:59:16;;;;;;;8.75;1.90;;;;;;;;;;5052757;28;20072;-45
2022/09/13 03:02:06;;;;;;;7.90;2.05;;;;;;;;;;5051174;28;20127;-45
2022/09/13 03:04:33;;;;;;;2.42;1.70;;;;;;;;;;5045433;28;20512;-45
2022/09/13 03:06:59;;;;;;;3.58;1.83;;;;;;;;;;5051703;28;20060;-46
2022/09/13 03:09:25;;;;;;;7.43;2.03;;;;;;;;;;5052116;28;20029;-44
2022/09/13 03:12:18;;;;;;;2.92;2.22;;;;;;;;;;5045880;28;20120;-45
2022/09/13 03:14:59;;;;;;;3.60;2.10;;;;;;;;;;5053862;28;20044;-47
2022/09/13 03:17:36;;;;;;;2.72;1.98;;;;;;;;;;5046412;28;20064;-46
2022/09/13 03:20:44;;;;;;;3.40;1.90;;;;;;;;;;5042904;28;20037;-45
2022/09/13 03:23:29;;;;;;;4.80;1.80;;;;;;;;;;5057850;28;20037;-45
2022/09/13 03:26:43;;;;;;;3.30;1.85;;;;;;;;;;5058465;28;20048;-45
2022/09/13 03:29:32;;;;;;;6.68;2.20;;;;;;;;;;5002334;28;20057;-44
2022/09/13 03:32:09;;;;;;;7.25;2.13;;;;;;;;;;5002797;28;20100;-46
2022/09/13 03:34:42;;;;;;;4.55;2.08;;;;;;;;;;4997503;28;20045;-40
2022/09/13 03:37:20;;;;;;;5.28;1.83;;;;;;;;;;5001813;28;20747;-45
2022/09/13 03:39:49;;;;;;;5.03;2.30;;;;;;;;;;5011714;28;20037;-47
2022/09/13 03:42:21;;;;;;;4.68;2.20;;;;;;;;;;5023566;28;20045;-44
2022/09/13 03:44:49;;;;;;;4.72;1.90;;;;;;;;;;5023863;28;20081;-44
2022/09/13 03:47:17;;;;;;;5.32;1.90;;;;;;;;;;5016942;28;20049;-44
2022/09/13 03:49:43;;;;;;;5.40;2.03;;;;;;;;;;5022739;28;20572;-47
2022/09/13 03:52:10;;;;;;;6.38;2.03;;;;;;;;;;5024989;28;20080;-44
2022/09/13 03:54:37;;;;;;;5.45;2.40;;;;;;;;;;5021374;28;20072;-46
2022/09/13 03:57:11;;;;;;;4.72;1.60;;;;;;;;;;5020278;28;20042;-44
2022/09/13 03:59:38;;;;;;;4.72;2.00;;;;;;;;;;5013964;28;20494;-48
2022/09/13 04:02:06;;;;;;;4.55;1.90;;;;;;;;;;5024810;28;20049;-44
2022/09/13 04:04:32;;;;;;;5.70;2.05;;;;;;;;;;5025128;28;20400;-43
2022/09/13 04:07:02;;;;;;;5.82;1.90;;;;;;;;;;5046446;28;20653;-44
2022/09/13 04:09:28;;;;;;;3.45;1.80;;;;;;;;;;5047980;28;20041;-47
2022/09/13 04:11:54;;;;;;;3.60;1.83;;;;;;;;;;5040773;28;20398;-46
2022/09/13 04:14:19;;;;;;;3.63;1.85;;;;;;;;;;5053481;28;20044;-44
2022/09/13 04:16:45;;;;;;;5.55;2.00;;;;;;;;;;5049227;28;20114;-44
2022/09/13 04:19:10;;;;;;;3.70;2.30;;;;;;;;;;5056868;28;20036;-44
2022/09/13 04:21:37;;;;;;;4.35;1.70;;;;;;;;;;5047582;28;20032;-44
2022/09/13 04:24:02;;;;;;;4.05;2.05;;;;;;;;;;5050403;28;20390;-47
2022/09/13 04:26:28;;;;;;;3.25;1.80;;;;;;;;;;5045146;28;20051;-44
2022/09/13 04:28:54;;;;;;;5.30;1.95;;;;;;;;;;5041966;28;20041;-45
2022/09/13 04:31:20;;;;;;;6.50;1.85;;;;;;;;;;5040303;28;20042;-44
2022/09/13 04:33:45;;;;;;;4.75;1.70;;;;;;;;;;5045251;28;20045;-44
2022/09/13 04:36:11;;;;;;;2.38;1.95;;;;;;;;;;5043901;28;20099;-46
2022/09/13 04:38:36;;;;;;;5.60;1.52;;;;;;;;;;5041860;28;20056;-44
2022/09/13 04:41:02;;;;;;;6.82;1.95;;;;;;;;;;5044751;28;20049;-44
2022/09/13 04:43:28;;;;;;;4.15;2.17;;;;;;;;;;5042955;28;20541;-44
2022/09/13 04:45:54;;;;;;;5.55;2.03;;;;;;;;;;5039587;28;20095;-44
2022/09/13 04:48:19;;;;;;;5.47;1.92;;;;;;;;;;5044756;28;20041;-44
2022/09/13 04:50:45;;;;;;;2.88;1.73;;;;;;;;;;5044900;28;20076;-46
2022/09/13 04:53:11;;;;;;;7.45;2.05;;;;;;;;;;5044610;28;20398;-45
2022/09/13 04:55:36;;;;;;;6.72;1.98;;;;;;;;;;5042515;28;20033;-44
2022/09/13 04:58:03;;;;;;;8.38;2.50;;;;;;;;;;5042567;28;20041;-46
2022/09/13 05:00:29;;;;;;;3.42;1.75;;;;;;;;;;5040032;28;20045;-45
2022/09/13 05:02:55;;;;;;;6.60;1.70;;;;;;;;;;5048758;28;20062;-45
2022/09/13 05:05:21;;;;;;;4.68;1.90;;;;;;;;;;5048497;28;20037;-44
2022/09/13 05:07:51;;;;;;;3.95;1.83;;;;;;;;;;5039631;28;20597;-47
2022/09/13 05:10:17;;;;;;;3.25;1.92;;;;;;;;;;5045418;28;20402;-44
2022/09/13 05:12:43;;;;;;;2.53;1.88;;;;;;;;;;5050921;28;20040;-45
2022/09/13 05:15:09;;;;;;;3.40;2.15;;;;;;;;;;5050313;28;20049;-45
2022/09/13 05:17:35;;;;;;;4.53;2.20;;;;;;;;;;5062567;28;20041;-46
2022/09/13 05:20:00;;;;;;;4.53;2.20;;;;;;;;;;5049882;28;20119;-44
2022/09/13 05:22:26;;;;;;;7.75;1.88;;;;;;;;;;5049323;28;20036;-46
2022/09/13 05:24:52;;;;;;;3.75;1.80;;;;;;;;;;5062125;28;20036;-47
2022/09/13 05:27:17;;;;;;;6.97;2.08;;;;;;;;;;5051211;28;20099;-44
2022/09/13 05:29:43;;;;;;;2.97;1.88;;;;;;;;;;5049436;28;20033;-47
2022/09/13 05:32:08;;;;;;;8.90;2.20;;;;;;;;;;5057176;28;20058;-47
2022/09/13 05:34:34;;;;;;;4.00;1.92;;;;;;;;;;5046975;28;20079;-45
2022/09/13 05:36:59;;;;;;;5.85;1.90;;;;;;;;;;5041470;28;20171;-43
2022/09/13 05:39:25;;;;;;;3.85;2.20;;;;;;;;;;5048782;28;20394;-45
2022/09/13 05:41:51;;;;;;;10.30;2.30;;;;;;;;;;5044520;28;20040;-47
2022/09/13 05:44:16;;;;;;;6.40;2.00;;;;;;;;;;5049405;28;20045;-45
2022/09/13 05:46:46;;;;;;;6.10;1.83;;;;;;;;;;5051250;28;20041;-44
2022/09/13 05:49:12;;;;;;;3.13;1.80;;;;;;;;;;5046701;28;20409;-46
2022/09/13 05:51:38;;;;;;;4.20;1.90;;;;;;;;;;5041503;28;20581;-48
2022/09/13 05:54:04;;;;;;;4.82;1.95;;;;;;;;;;5051025;28;20045;-44
2022/09/13 05:56:30;;;;;;;3.55;1.88;;;;;;;;;;5046999;28;20033;-44
2022/09/13 05:58:57;;;;;;;4.95;1.70;;;;;;;;;;5054489;28;20074;-48
2022/09/13 06:01:26;;;;;;;3.53;1.75;;;;;;;;;;5052484;28;20060;-43
2022/09/13 06:03:54;;;;;;;7.65;1.98;;;;;;;;;;5045730;28;20037;-45
2022/09/13 06:06:20;;;;;;;3.05;1.85;;;;;;;;;;5050250;28;20052;-45
2022/09/13 06:08:46;;;;;;;4.28;1.80;;;;;;;;;;5052889;28;20087;-46
2022/09/13 06:11:14;;;;;;;6.50;1.92;;;;;;;;;;5056805;28;20114;-44
2022/09/13 06:13:41;;;;;;;3.72;1.80;;;;;;;;;;5052963;28;20680;-46
2022/09/13 06:16:09;;;;;;;2.80;1.65;;;;;;;;;;5050052;28;20047;-50
2022/09/13 06:18:35;;;;;;;3.63;2.05;;;;;;;;;;5049853;28;20040;-42
2022/09/13 06:21:18;;;;;;;7.47;1.88;;;;;;;;;;5059514;28;20044;-45
2022/09/13 06:23:48;;;;;;;4.78;2.20;;;;;;;;;;5056504;28;20585;-44
2022/09/13 06:26:15;;;;;;;7.88;1.85;;;;;;;;;;5050564;28;20171;-44
2022/09/13 06:28:41;;;;;;;5.07;2.20;;;;;;;;;;5063068;28;20135;-44
2022/09/13 06:31:09;;;;;;;4.53;1.85;;;;;;;;;;5055389;28;20517;-44
2022/09/13 06:33:37;;;;;;;7.57;2.33;;;;;;;;;;5054187;28;20052;-47
2022/09/13 06:36:15;;;;;;;5.18;2.28;;;;;;;;;;5053618;28;20045;-47
2022/09/13 06:38:40;;;;;;;7.03;1.95;;;;;;;;;;5050421;28;20060;-44
2022/09/13 06:41:11;;;;;;;10.20;2.72;;;;;;;;;;5048790;28;20052;-44
2022/09/13 06:43:37;;;;;;;3.93;1.90;;;;;;;;;;5048652;28;20107;-44
2022/09/13 06:46:05;;;;;;;4.22;1.70;;;;;;;;;;5060778;28;20076;-44
2022/09/13 06:48:35;;;;;;;6.25;2.17;;;;;;;;;;5053857;28;20091;-44
2022/09/13 06:51:03;;;;;;;7.88;1.92;;;;;;;;;;5062133;28;20430;-45
2022/09/13 06:53:29;;;;;;;4.72;2.10;;;;;;;;;;5055266;28;20037;-44
2022/09/13 06:56:07;;;;;;;3.40;1.90;;;;;;;;;;5053208;28;20494;-44
2022/09/13 06:58:34;;;;;;;7.07;1.92;;;;;;;;;;5044856;28;20037;-46
2022/09/13 07:01:23;;;;;;;4.28;1.70;;;;;;;;;;5043730;28;20418;-46
2022/09/13 07:03:53;;;;;;;8.00;1.95;;;;;;;;;;5044337;28;20052;-44
2022/09/13 07:06:19;;;;;;;4.57;1.88;;;;;;;;;;5046093;28;20048;-44
2022/09/13 07:08:46;;;;;;;2.65;1.88;;;;;;;;;;5046287;28;20045;-44
2022/09/13 07:11:17;;;;;;;6.65;2.08;;;;;;;;;;5042924;28;20048;-45
2022/09/13 07:13:50;;;;;;;2.47;1.65;;;;;;;;;;5042621;28;20046;-45
2022/09/13 07:16:17;;;;;;;3.13;1.60;;;;;;;;;;5043644;28;20048;-45
2022/09/13 07:18:44;;;;;;;6.30;2.10;;;;;;;;;;5043617;28;20537;-44
2022/09/13 07:21:10;;;;;;;7.40;1.77;;;;;;;;;;5043541;28;20041;-44
2022/09/13 07:23:37;;;;;;;3.75;1.73;;;;;;;;;;5043372;28;20033;-44
2022/09/13 07:26:05;;;;;;;5.70;1.80;;;;;;;;;;5052384;28;20098;-44
2022/09/13 07:28:33;;;;;;;3.75;2.00;;;;;;;;;;5054053;28;20119;-45
2022/09/13 07:31:17;;;;;;;7.47;2.00;;;;;;;;;;5051291;28;20409;-44
2022/09/13 07:33:43;;;;;;;3.28;1.70;;;;;;;;;;5049968;28;20045;-44
2022/09/13 07:36:10;;;;;;;4.85;1.73;;;;;;;;;;5052124;28;20048;-45
2022/09/13 07:38:41;;;;;;;3.17;1.73;;;;;;;;;;5043023;28;20041;-45
2022/09/13 07:41:11;;;;;;;6.47;2.20;;;;;;;;;;5043848;28;20041;-44
2022/09/13 07:43:37;;;;;;;7.32;2.05;;;;;;;;;;5051637;28;20045;-42
2022/09/13 07:46:14;;;;;;;4.40;1.90;;;;;;;;;;5044143;28;20037;-44
2022/09/13 07:48:41;;;;;;;7.93;1.90;;;;;;;;;;5044113;28;20427;-42
2022/09/13 07:51:08;;;;;;;8.63;1.98;;;;;;;;;;5044394;28;20537;-44
2022/09/13 07:53:35;;;;;;;4.35;1.52;;;;;;;;;;5050450;28;20059;-45
2022/09/13 07:56:05;;;;;;;7.40;1.75;;;;;;;;;;5047348;28;20052;-44
2022/09/13 07:58:32;;;;;;;5.20;1.80;;;;;;;;;;5054899;28;20078;-44
2022/09/13 08:01:25;;;;;;;6.22;1.90;;;;;;;;;;5051568;28;20055;-44
2022/09/13 08:03:58;;;;;;;5.18;2.40;;;;;;;;;;5049703;28;20037;-45
2022/09/13 08:06:25;;;;;;;5.45;1.77;;;;;;;;;;5053079;28;20037;-44
2022/09/13 08:08:51;;;;;;;5.32;1.90;;;;;;;;;;5058793;28;20040;-45
2022/09/13 08:11:20;;;;;;;6.03;2.08;;;;;;;;;;5050234;28;20551;-44
2022/09/13 08:13:46;;;;;;;4.50;1.50;;;;;;;;;;5045634;28;20401;-44
2022/09/13 08:16:13;;;;;;;6.35;2.35;;;;;;;;;;5056170;28;20037;-45
2022/09/13 08:18:47;;;;;;;7.97;2.08;;;;;;;;;;5045852;28;20944;-43
2022/09/13 08:21:13;;;;;;;3.78;1.63;;;;;;;;;;5061522;28;20489;-45
2022/09/13 08:23:39;;;;;;;3.03;1.73;;;;;;;;;;5054933;28;20037;-44
2022/09/13 08:26:06;;;;;;;3.78;2.00;;;;;;;;;;5059299;28;20053;-49
2022/09/13 08:28:34;;;;;;;3.35;1.70;;;;;;;;;;5047843;28;20041;-48
2022/09/13 08:31:08;;;;;;;5.63;1.70;;;;;;;;;;5043070;28;20045;-46
2022/09/13 08:33:34;;;;;;;9.80;1.85;;;;;;;;;;5043023;28;20139;-44
2022/09/13 08:36:01;;;;;;;5.70;1.80;;;;;;;;;;5047395;28;20047;-44
2022/09/13 08:38:27;;;;;;;7.85;1.75;;;;;;;;;;5063086;28;20048;-44
2022/09/13 08:40:58;;;;;;;3.13;1.90;;;;;;;;;;5057332;28;20413;-44
2022/09/13 08:43:44;;;;;;;;;;;;;;;;;;5039976;28;20109;-44
2022/09/13 08:46:31;;;;;;;4.35;1.92;;;;;;;;;;5022707;28;19921;-45
2022/09/13 08:49:02;;;;;;;3.08;1.52;;;;;;;;;;5023200;28;20042;-44
2022/09/13 08:51:48;;;;;;;3.15;1.67;;;;;;;;;;5023269;28;20072;-47
2022/09/13 08:54:15;;;;;;;3.60;1.55;;;;;;;;;;5021578;28;20044;-46
2022/09/13 08:56:51;;;;;;;6.35;1.80;;;;;;;;;;5022843;28;20084;-46
2022/09/13 08:59:28;;;;;;;3.38;1.65;;;;;;;;;;5022698;28;20038;-46
2022/09/13 09:01:59;;;;;;;4.80;1.92;;;;;;;;;;5022939;28;20136;-46
2022/09/13 09:04:25;;;;;;;4.13;1.83;;;;;;;;;;5024005;28;20041;-46
2022/09/13 09:07:12;;;;;;;9.63;2.30;;;;;;;;;;5021699;28;20112;-46
2022/09/13 09:09:47;;;;;;;4.05;1.70;;;;;;;;;;5022262;28;20057;-48
2022/09/13 09:12:19;;;;;;;4.22;1.80;;;;;;;;;;5022046;28;20049;-47
2022/09/13 09:14:47;;;;;;;;;;;;;;;;;;5021399;28;20550;-44
2022/09/13 09:17:19;;;;;;;9.73;2.30;;;;;;;;;;5023959;28;19983;-44
2022/09/13 09:19:54;;;;;;;8.02;2.55;;;;;;;;;;5021812;28;20133;-46
2022/09/13 09:22:23;;;;;;;7.70;1.92;;;;;;;;;;5023792;28;20048;-43
2022/09/13 09:24:56;;;;;;;11.85;2.30;;;;;;;;;;5049104;28;20497;-47
2022/09/13 09:27:22;;;;;;;7.30;2.30;;;;;;;;;;5039962;28;20041;-48
2022/09/13 09:29:52;;;;;;;4.35;1.92;;;;;;;;;;5045511;28;20059;-44
2022/09/13 09:32:30;;;;;;;8.32;2.03;;;;;;;;;;5051842;28;20045;-45
2022/09/13 09:35:20;;;;;;;6.43;1.80;;;;;;;;;;5053557;28;20141;-46
2022/09/13 09:38:15;;;;;;;8.57;1.98;;;;;;;;;;5046065;28;20060;-49
2022/09/13 09:40:41;;;;;;;10.93;2.17;;;;;;;;;;5051589;28;20064;-44
2022/09/13 09:43:36;;;;;;;8.20;2.05;;;;;;;;;;5056273;28;20048;-48
2022/09/13 09:46:04;;;;;;;5.97;1.65;;;;;;;;;;5054514;28;20523;-48
2022/09/13 09:48:40;;;;;;;9.20;2.10;;;;;;;;;;5056195;28;20085;-50
2022/09/13 09:51:09;;;;;;;7.70;2.20;;;;;;;;;;5059401;28;20063;-45
2022/09/13 09:53:43;;;;;;;5.40;2.00;;;;;;;;;;5051681;28;20563;-40
2022/09/13 09:56:18;;;;;;;3.92;1.55;;;;;;;;;;5061691;28;20041;-45
2022/09/13 09:58:45;;;;;;;3.70;2.00;;;;;;;;;;5054914;28;20044;-46
2022/09/13 10:01:31;;;;;;;4.78;1.55;;;;;;;;;;5048202;28;20103;-50
2022/09/13 10:04:20;;;;;;;2.50;1.50;;;;;;;;;;5051273;28;20048;-48
2022/09/13 10:06:48;;;;;;;4.68;1.50;;;;;;;;;;5050917;28;20048;-44
2022/09/13 10:09:20;;;;;;;4.65;1.80;;;;;;;;;;5044712;28;20032;-51
2022/09/13 10:11:51;;;;;;;1.90;1.48;;;;;;;;;;5046330;28;20041;-47
2022/09/13 10:14:36;;;;;;;5.55;1.60;;;;;;;;;;5053244;28;20057;-48
2022/09/13 10:17:11;;;;;;;8.50;1.80;;;;;;;;;;5046873;28;20040;-47
2022/09/13 10:19:37;;;;;;;5.60;1.60;;;;;;;;;;5051420;28;20090;-44
2022/09/13 10:22:09;;;;;;;4.60;2.05;;;;;;;;;;5050483;28;20040;-50
2022/09/13 10:24:34;;;;;;;8.85;1.80;;;;;;;;;;5047712;28;20116;-50
2022/09/13 10:27:03;;;;;;;9.40;2.00;;;;;;;;;;5051756;28;20128;-48
2022/09/13 10:29:30;;;;;;;5.38;1.90;;;;;;;;;;5048220;28;20571;-51
2022/09/13 10:32:00;;;;;;;3.53;1.42;;;;;;;;;;5046929;28;20041;-46
2022/09/13 10:34:34;;;;;;;6.38;2.08;;;;;;;;;;5054099;28;20040;-44
2022/09/13 10:37:13;;;;;;;7.20;1.80;;;;;;;;;;5049144;28;20045;-46
2022/09/13 10:40:14;;;;;;;8.68;1.58;;;;;;;;;;5050433;28;20127;-44
2022/09/13 10:42:49;;;;;;;3.05;1.58;;;;;;;;;;5044134;28;20145;-46
2022/09/13 10:45:26;;;;;;;1.65;1.20;;;;;;;;;;5053777;28;20615;-44
2022/09/13 10:47:54;;;;;;;3.40;1.42;;;;;;;;;;5062393;28;20036;-46
2022/09/13 10:50:25;;;;;;;3.55;1.25;;;;;;;;;;5054719;28;20405;-46
2022/09/13 10:52:55;;;;;;;4.30;1.85;;;;;;;;;;5051531;28;20512;-44
2022/09/13 10:55:28;;;;;;;6.22;1.60;;;;;;;;;;5052219;28;20048;-46
2022/09/13 10:58:00;;;;;;;1.83;1.48;;;;;;;;;;5051557;28;20132;-44
2022/09/13 11:01:11;;;;;;;2.08;1.38;;;;;;;;;;5049684;28;20049;-44
2022/09/13 11:03:45;;;;;;;5.85;1.67;;;;;;;;;;5060464;28;20167;-44
2022/09/13 11:06:26;;;;;;;4.65;1.48;;;;;;;;;;5049703;28;20036;-45
2022/09/13 11:09:06;;;;;;;2.03;1.50;;;;;;;;;;5045794;28;20037;-48
2022/09/13 11:12:09;;;;;;;4.40;1.67;;;;;;;;;;5055864;28;20467;-45
2022/09/13 11:14:34;;;;;;;;;;;;;;;;;;5056031;28;20132;-45
2022/09/13 11:17:18;;;;;;;5.53;1.63;;;;;;;;;;5044579;28;20044;-45
2022/09/13 11:20:06;;;;;;;4.20;1.30;;;;;;;;;;5041607;28;20505;-44
2022/09/13 11:22:49;;;;;;;4.68;1.70;;;;;;;;;;5052422;28;20074;-44
2022/09/13 11:25:38;;;;;;;5.40;1.70;;;;;;;;;;5063639;28;20056;-49
2022/09/13 11:28:04;;;;;;;2.80;1.70;;;;;;;;;;4993491;28;20876;-44
2022/09/13 11:30:41;;;;;;;5.00;1.55;;;;;;;;;;5005347;28;20042;-44
2022/09/13 11:33:52;;;;;;;3.10;1.50;;;;;;;;;;5002046;28;20395;-46
2022/09/13 11:36:38;;;;;;;4.30;1.60;;;;;;;;;;4926546;29;20141;-47
2022/09/13 11:39:16;;;;;;;4.80;1.67;;;;;;;;;;4926123;29;20131;-46
2022/09/13 11:42:20;;;;;;;5.53;2.00;;;;;;;;;;4923362;29;20055;-44
2022/09/13 11:45:29;;;;;;;3.47;1.50;;;;;;;;;;4888125;29;20067;-47
2022/09/13 11:48:28;;;;;;;7.85;1.85;;;;;;;;;;4838643;29;21366;-44
2022/09/13 11:51:15;;;;;;;2.13;1.40;;;;;;;;;;4843128;29;20102;-45
2022/09/13 11:54:19;;;;;;;5.53;1.45;;;;;;;;;;4840659;29;20104;-44
2022/09/13 11:56:49;;;;;;;4.40;1.30;;;;;;;;;;4834391;29;20189;-44
2022/09/13 11:59:43;;;;;;;4.47;1.40;;;;;;;;;;4837172;29;20073;-44
2022/09/13 12:02:24;;;;;;;1.40;1.30;;;;;;;;;;4841171;29;20522;-44
2022/09/13 12:04:56;;;;;;;6.07;1.33;;;;;;;;;;4852993;29;20081;-47
2022/09/13 12:07:33;;;;;;;1.48;1.23;;;;;;;;;;4868867;29;20071;-47
2022/09/13 12:10:30;;;;;;;4.30;1.40;;;;;;;;;;4877179;29;20458;-45
2022/09/13 12:12:58;;;;;;;1.90;1.15;;;;;;;;;;4895616;29;20192;-45
2022/09/13 12:15:40;;;;;;;7.25;1.38;;;;;;;;;;4906410;29;20092;-46
2022/09/13 12:18:14;;;;;;;3.28;1.20;;;;;;;;;;4906180;29;20099;-49
2022/09/13 12:20:50;;;;;;;4.05;1.50;;;;;;;;;;4925011;28;20579;-47
2022/09/13 12:24:00;;;;;;;1.25;1.15;;;;;;;;;;5052616;28;20037;-45
2022/09/13 12:26:34;;;;;;;4.38;1.20;;;;;;;;;;5021379;28;20418;-45
2022/09/13 12:29:16;;;;;;;1.83;1.25;;;;;;;;;;5021478;28;20045;-45
2022/09/13 12:31:42;;;;;;;2.72;1.10;;;;;;;;;;5014813;28;20169;-45
2022/09/13 12:34:18;;;;;;;4.80;1.30;;;;;;;;;;5022238;28;20046;-47
2022/09/13 12:36:55;;;;;;;4.25;1.20;;;;;;;;;;5020199;28;20095;-47
2022/09/13 12:39:46;;;;;;;6.18;2.00;;;;;;;;;;5020395;28;20109;-47
2022/09/13 12:42:34;;;;;;;4.53;1.30;;;;;;;;;;5019526;28;20076;-47
2022/09/13 12:45:02;;;;;;;4.35;1.30;;;;;;;;;;5020077;28;20726;-46
2022/09/13 12:47:48;;;;;;;6.22;1.42;;;;;;;;;;5022188;28;20043;-49
2022/09/13 12:50:31;;;;;;;7.65;2.00;;;;;;;;;;5020360;28;20060;-47
2022/09/13 12:53:06;;;;;;;2.33;1.40;;;;;;;;;;5019232;28;20657;-48
2022/09/13 12:55:56;;;;;;;8.35;1.40;;;;;;;;;;5023585;28;20060;-46
2022/09/13 12:58:54;;;;;;;1.50;1.40;;;;;;;;;;5021183;28;20057;-49
2022/09/13 13:01:25;;;;;;;3.25;0.98;;;;;;;;;;5056957;28;20058;-47
2022/09/13 13:03:59;;;;;;;2.97;1.10;;;;;;;;;;5041456;28;20128;-46
2022/09/13 13:06:55;;;;;;;2.55;1.27;;;;;;;;;;5045653;28;20397;-46
2022/09/13 13:09:34;;;;;;;2.50;1.13;;;;;;;;;;5046374;28;20033;-45
2022/09/13 13:12:00;;;;;;;6.20;1.50;;;;;;;;;;5053497;28;20048;-47
2022/09/13 13:14:38;;;;;;;2.88;1.23;;;;;;;;;;5057008;28;20401;-45
2022/09/13 13:17:34;;;;;;;2.55;1.40;;;;;;;;;;5066163;28;20405;-46
2022/09/13 13:20:42;;;;;;;3.92;1.30;;;;;;;;;;5065128;28;20061;-49
2022/09/13 13:23:17;;;;;;;6.70;1.05;;;;;;;;;;5062196;28;20048;-45
2022/09/13 13:26:10;;;;;;;4.78;1.38;;;;;;;;;;5052855;28;20055;-47
2022/09/13 13:28:46;;;;;;;7.65;1.45;;;;;;;;;;5055108;28;20040;-44
2022/09/13 13:31:20;;;;;;;1.67;1.10;;;;;;;;;;5056755;28;20067;-48
2022/09/13 13:33:49;;;;;;;3.30;1.35;;;;;;;;;;5050135;28;20045;-45
2022/09/13 13:36:27;;;;;;;1.20;1.10;;;;;;;;;;5057616;28;20064;-46
2022/09/13 13:38:57;;;;;;;5.20;1.23;;;;;;;;;;5051010;28;20053;-46
2022/09/13 13:41:31;;;;;;;6.47;1.35;;;;;;;;;;5055855;28;20654;-44
2022/09/13 13:43:57;;;;;;;4.20;1.30;;;;;;;;;;5053325;28;20045;-45
2022/09/13 13:46:26;;;;;;;7.55;1.35;;;;;;;;;;5060809;28;20493;-47
2022/09/13 13:48:53;;;;;;;5.25;1.42;;;;;;;;;;5053626;28;20068;-45
2022/09/13 13:51:24;;;;;;;3.75;1.30;;;;;;;;;;5054660;28;20049;-45
2022/09/13 13:54:00;;;;;;;3.95;1.25;;;;;;;;;;5053101;28;20024;-45
2022/09/13 13:56:31;;;;;;;2.65;1.30;;;;;;;;;;5054836;28;20550;-45
2022/09/13 13:59:12;;;;;;;4.20;1.60;;;;;;;;;;5054810;28;20048;-47
2022/09/13 14:01:44;;;;;;;8.15;1.33;;;;;;;;;;5051936;28;20040;-46
2022/09/13 14:04:38;;;;;;;4.85;1.10;;;;;;;;;;5046081;28;20125;-51
2022/09/13 14:07:07;;;;;;;5.78;1.27;;;;;;;;;;5042906;28;20046;-45
2022/09/13 14:09:45;;;;;;;4.88;1.27;;;;;;;;;;5045072;28;20152;-48
2022/09/13 14:12:33;;;;;;;2.13;1.25;;;;;;;;;;5044668;28;20119;-52
2022/09/13 14:15:01;;;;;;;3.97;1.35;;;;;;;;;;5046149;28;20041;-45
2022/09/13 14:17:42;;;;;;;4.50;1.40;;;;;;;;;;5045941;28;20064;-52
2022/09/13 14:20:15;;;;;;;3.92;1.48;;;;;;;;;;5041571;28;20095;-45
2022/09/13 14:22:41;;;;;;;2.13;1.20;;;;;;;;;;5043834;28;20029;-49
2022/09/13 14:25:18;;;;;;;4.13;1.10;;;;;;;;;;5042684;28;20524;-46
2022/09/13 14:27:46;;;;;;;3.33;1.30;;;;;;;;;;5052837;28;20071;-49
2022/09/13 14:30:20;;;;;;;4.53;1.65;;;;;;;;;;5049945;28;20040;-46
2022/09/13 14:32:49;;;;;;;1.98;1.10;;;;;;;;;;5056379;28;20631;-46
2022/09/13 14:35:36;;;;;;;3.13;1.00;;;;;;;;;;5057844;28;20156;-46
2022/09/13 14:38:16;;;;;;;3.92;1.20;;;;;;;;;;5051072;28;20048;-47
2022/09/13 14:40:49;;;;;;;1.98;1.63;;;;;;;;;;5052604;28;20069;-51
2022/09/13 14:43:21;;;;;;;2.75;1.58;;;;;;;;;;5056127;28;20028;-48
2022/09/13 14:45:51;;;;;;;1.85;1.10;;;;;;;;;;5055163;28;20098;-47
2022/09/13 14:48:37;;;;;;;2.28;1.40;;;;;;;;;;5053953;28;20052;-48
2022/09/13 14:51:06;;;;;;;4.75;1.55;;;;;;;;;;5049044;28;20087;-47
2022/09/13 14:53:33;;;;;;;1.90;1.48;;;;;;;;;;5058132;28;20041;-45
2022/09/13 14:56:05;;;;;;;8.10;1.58;;;;;;;;;;5054910;28;20044;-48
2022/09/13 14:58:42;;;;;;;2.83;1.25;;;;;;;;;;5048368;28;20041;-45
2022/09/13 15:01:10;;;;;;;3.20;1.35;;;;;;;;;;5058307;28;20268;-48
2022/09/13 15:03:40;;;;;;;2.50;1.30;;;;;;;;;;5044862;28;20049;-44
2022/09/13 15:06:06;;;;;;;1.85;1.27;;;;;;;;;;5043032;28;20414;-48
2022/09/13 15:08:31;;;;;;;3.38;1.55;;;;;;;;;;5054951;28;20040;-47
2022/09/13 15:10:58;;;;;;;2.33;1.30;;;;;;;;;;5050346;28;20041;-45
2022/09/13 15:13:25;;;;;;;3.42;1.40;;;;;;;;;;5041807;28;20037;-47
2022/09/13 15:15:51;;;;;;;2.25;1.60;;;;;;;;;;5051451;28;20044;-49
2022/09/13 15:18:18;;;;;;;3.97;1.30;;;;;;;;;;5052644;28;20044;-45
2022/09/13 15:20:50;;;;;;;6.95;1.38;;;;;;;;;;5059376;28;20126;-45
2022/09/13 15:23:27;;;;;;;;;;;;;;;;;;5044301;28;20131;-48